Time;durP1;ratioP1;P1;durP2;ratioP2;P2;SDS_P1;SDS_P2;PMS_P1;PMS_P2;Temp;Humidity;BMP_temperature;BMP_pressure;BME280_temperature;BME280_humidity;BME280_pressure;Samples;Min_cycle;Max_cycle;Signal;HPM_P1;HPM_P2
2021/09/25 00:01:29;;;;;;;9.68;3.90;;;;;;;20.06;65.49;101593.56;5049499;28;20392;-49
2021/09/25 00:03:55;;;;;;;13.13;3.75;;;;;;;19.97;66.19;101588.38;5044127;28;20598;-53
2021/09/25 00:06:20;;;;;;;13.15;3.65;;;;;;;20.04;65.81;101592.69;5053374;28;20043;-53
2021/09/25 00:08:46;;;;;;;12.40;3.70;;;;;;;20.04;65.82;101587.41;5046467;28;20087;-49
2021/09/25 00:11:12;;;;;;;11.75;3.50;;;;;;;19.99;66.30;101583.94;5029433;28;20064;-55
2021/09/25 00:13:37;;;;;;;13.27;3.47;;;;;;;20.04;66.15;101592.69;5049280;28;20032;-50
2021/09/25 00:16:04;;;;;;;13.68;3.55;;;;;;;19.99;66.51;101586.59;5026631;28;20142;-50
2021/09/25 00:18:35;;;;;;;14.88;3.60;;;;;;;20.02;66.39;101590.94;5051045;28;20040;-51
2021/09/25 00:21:00;;;;;;;10.73;3.55;;;;;;;20.04;66.23;101584.75;5038544;28;20479;-51
2021/09/25 00:23:26;;;;;;;10.23;3.35;;;;;;;20.01;66.59;101581.25;5045665;28;20123;-52
2021/09/25 00:25:52;;;;;;;10.90;3.17;;;;;;;20.01;66.65;101586.56;5047641;28;20029;-53
2021/09/25 00:28:17;;;;;;;13.02;3.45;;;;;;;20.00;66.53;101583.06;5049246;28;20075;-49
2021/09/25 00:30:42;;;;;;;8.77;3.22;;;;;;;19.89;66.96;101582.31;5049243;28;20044;-53
2021/09/25 00:33:08;;;;;;;11.27;3.55;;;;;;;19.99;66.75;101583.94;5042168;28;20121;-49
2021/09/25 00:35:34;;;;;;;9.80;3.10;;;;;;;20.01;66.85;101583.91;5045773;28;20433;-49
2021/09/25 00:37:59;;;;;;;11.63;3.33;;;;;;;19.93;67.28;101581.38;5051903;28;20036;-51
2021/09/25 00:40:25;;;;;;;9.88;3.45;;;;;;;20.01;66.65;101584.78;5046597;28;20048;-53
2021/09/25 00:42:51;;;;;;;11.88;3.70;;;;;;;19.93;67.11;101586.69;5040588;28;20172;-53
2021/09/25 00:45:19;;;;;;;10.52;3.60;;;;;;;19.89;66.98;101589.38;5044460;28;20052;-53
2021/09/25 00:47:44;;;;;;;10.00;3.45;;;;;;;19.89;66.89;101582.31;5049257;28;20488;-54
2021/09/25 00:50:10;;;;;;;11.80;3.63;;;;;;;19.87;66.88;101584.13;5042635;28;20079;-52
2021/09/25 00:52:35;;;;;;;8.77;3.40;;;;;;;19.78;67.18;101582.47;5031333;28;20639;-51
2021/09/25 00:55:01;;;;;;;8.45;3.47;;;;;;;19.76;67.37;101589.53;5021386;28;20456;-50
2021/09/25 00:57:27;;;;;;;10.75;3.42;;;;;;;19.78;67.24;101593.03;5047373;28;20382;-51
2021/09/25 00:59:56;;;;;;;13.25;3.72;;;;;;;19.73;67.22;101589.59;5047782;28;20076;-50
2021/09/25 01:02:21;;;;;;;10.82;3.70;;;;;;;19.50;68.03;101599.59;5046686;28;20504;-52
2021/09/25 01:04:48;;;;;;;14.13;4.10;;;;;;;19.68;67.08;101591.44;5040205;28;20123;-48
2021/09/25 01:07:13;;;;;;;12.18;4.30;;;;;;;19.65;67.15;101585.28;5044798;28;20489;-50
2021/09/25 01:09:39;;;;;;;14.95;4.22;;;;;;;19.69;66.78;101594.94;5048236;28;20446;-50
2021/09/25 01:12:06;;;;;;;11.13;4.05;;;;;;;19.70;66.83;101584.31;5029289;28;20290;-52
2021/09/25 01:14:31;;;;;;;12.75;4.40;;;;;;;19.68;66.95;101591.44;5042729;28;20098;-52
2021/09/25 01:17:09;;;;;;;12.50;4.28;;;;;;;19.65;67.06;101585.28;5026584;28;20136;-48
2021/09/25 01:19:35;;;;;;;10.82;4.10;;;;;;;19.58;67.08;101587.13;5045249;28;20489;-53
2021/09/25 01:22:00;;;;;;;11.40;4.90;;;;;;;19.60;67.05;101585.34;5040208;28;20044;-54
2021/09/25 01:24:26;;;;;;;12.18;4.80;;;;;;;19.50;66.98;101588.13;5043186;28;20046;-49
2021/09/25 01:26:51;;;;;;;15.98;4.85;;;;;;;19.55;67.22;101591.59;5042042;28;20032;-49
2021/09/25 01:29:17;;;;;;;12.77;4.47;;;;;;;19.56;67.10;101586.28;5049658;28;20750;-49
2021/09/25 01:31:42;;;;;;;12.18;4.93;;;;;;;19.47;67.36;101593.44;5039536;28;20059;-57
2021/09/25 01:34:08;;;;;;;12.07;5.30;;;;;;;19.53;66.78;101585.44;5032687;28;20563;-49
2021/09/25 01:36:33;;;;;;;12.32;5.45;;;;;;;19.56;66.46;101590.69;5047189;28;20515;-49
2021/09/25 01:38:58;;;;;;;14.70;5.32;;;;;;;19.56;66.81;101582.75;5043415;28;20051;-50
2021/09/25 01:41:24;;;;;;;13.48;5.90;;;;;;;19.55;66.82;101592.47;5043561;28;20796;-49
2021/09/25 01:43:49;;;;;;;16.63;5.47;;;;;;;19.57;66.84;101592.44;5046217;28;20139;-48
2021/09/25 01:46:18;;;;;;;13.82;5.82;;;;;;;19.50;66.91;101599.59;5043641;28;20045;-48
2021/09/25 01:48:45;;;;;;;12.93;5.85;;;;;;;19.42;67.04;101586.41;5046180;28;20590;-50
2021/09/25 01:51:12;;;;;;;13.38;5.53;;;;;;;19.41;67.63;101579.38;5040542;28;20127;-51
2021/09/25 01:53:38;;;;;;;15.25;6.38;;;;;;;19.44;67.18;101589.03;5044648;28;20497;-52
2021/09/25 01:56:13;;;;;;;16.20;5.95;;;;;;;19.47;66.83;101588.16;5046866;28;20044;-50
2021/09/25 01:58:39;;;;;;;11.52;5.53;;;;;;;19.48;66.92;101588.13;5027321;28;20467;-51
2021/09/25 02:01:05;;;;;;;16.48;6.22;;;;;;;19.46;66.90;101581.97;5039898;28;20764;-51
2021/09/25 02:03:35;;;;;;;13.98;5.57;;;;;;;19.46;66.94;101586.44;5038798;28;20117;-51
2021/09/25 02:06:03;;;;;;;13.38;5.55;;;;;;;19.38;67.25;101581.19;5042559;28;20045;-52
2021/09/25 02:08:29;;;;;;;9.80;5.43;;;;;;;19.38;67.31;101584.69;5046220;28;20048;-51
2021/09/25 02:10:55;;;;;;;13.32;5.63;;;;;;;19.30;67.58;101575.97;5035672;28;20731;-48
2021/09/25 02:13:20;;;;;;;13.43;5.82;;;;;;;19.34;67.67;101582.09;5040997;28;20032;-50
2021/09/25 02:15:46;;;;;;;16.50;6.07;;;;;;;19.38;67.35;101576.78;5045194;28;20079;-48
2021/09/25 02:18:11;;;;;;;15.05;5.78;;;;;;;19.36;67.54;101583.84;5045998;28;20036;-48
2021/09/25 02:20:37;;;;;;;14.27;5.90;;;;;;;19.38;67.65;101579.41;5043460;28;20561;-52
2021/09/25 02:23:02;;;;;;;14.77;5.93;;;;;;;19.33;67.70;101577.72;5022374;28;20111;-49
2021/09/25 02:25:28;;;;;;;15.73;5.57;;;;;;;19.36;67.44;101583.84;5045589;28;20045;-49
2021/09/25 02:27:53;;;;;;;14.25;5.70;;;;;;;19.34;67.73;101580.31;5039448;28;20520;-52
2021/09/25 02:30:19;;;;;;;16.55;5.50;;;;;;;19.26;68.18;101581.31;5044812;28;20036;-49
2021/09/25 02:32:46;;;;;;;13.23;5.88;;;;;;;19.29;67.91;101573.34;5046113;28;20049;-52
2021/09/25 02:35:13;;;;;;;12.30;5.82;;;;;;;19.29;68.11;101581.28;5041956;28;20041;-49
2021/09/25 02:37:38;;;;;;;10.75;5.57;;;;;;;19.25;68.25;101576.91;5050587;28;20694;-53
2021/09/25 02:40:04;;;;;;;13.02;5.32;;;;;;;19.30;67.79;101575.09;5043476;28;20040;-51
2021/09/25 02:42:30;;;;;;;14.75;5.75;;;;;;;19.31;67.63;101572.44;5042529;28;20044;-52
2021/09/25 02:44:55;;;;;;;11.30;5.95;;;;;;;19.27;68.17;101573.34;5039360;28;20048;-50
2021/09/25 02:47:21;;;;;;;10.63;5.65;;;;;;;19.33;67.76;101577.72;5045785;28;20051;-53
2021/09/25 02:49:46;;;;;;;15.52;5.88;;;;;;;19.36;67.61;101573.25;5043010;28;20527;-52
2021/09/25 02:52:12;;;;;;;18.00;6.13;;;;;;;19.25;68.36;101566.34;5043140;28;20131;-53
2021/09/25 02:54:37;;;;;;;16.95;5.68;;;;;;;19.29;68.12;101570.69;5044252;28;20044;-48
2021/09/25 02:57:03;;;;;;;11.85;6.03;;;;;;;19.25;68.19;101566.34;5037092;28;20693;-49
2021/09/25 02:59:28;;;;;;;14.45;5.75;;;;;;;19.29;68.17;101570.69;5046378;28;20115;-51
2021/09/25 03:01:53;;;;;;;15.30;6.07;;;;;;;19.31;68.36;101579.50;5024500;28;20908;-53
2021/09/25 03:04:19;;;;;;;11.60;5.78;;;;;;;19.18;68.86;101575.22;5043460;28;20498;-49
2021/09/25 03:06:44;;;;;;;13.77;5.25;;;;;;;19.25;68.58;101579.56;5047138;28;20051;-51
2021/09/25 03:09:10;;;;;;;14.43;5.60;;;;;;;19.32;68.27;101581.25;5037278;28;20063;-50
2021/09/25 03:11:36;;;;;;;16.85;6.10;;;;;;;19.21;68.49;101570.78;5043163;28;20058;-47
2021/09/25 03:14:01;;;;;;;17.20;6.68;;;;;;;19.24;68.60;101576.03;5043072;28;20550;-52
2021/09/25 03:16:26;;;;;;;15.55;7.30;;;;;;;19.17;68.87;101577.00;5041440;28;20048;-51
2021/09/25 03:18:52;;;;;;;15.75;6.05;;;;;;;19.29;68.58;101575.97;5038688;28;20476;-52
2021/09/25 03:21:17;;;;;;;11.75;5.97;;;;;;;19.30;68.52;101577.75;5044172;28;20037;-48
2021/09/25 03:23:43;;;;;;;11.35;5.80;;;;;;;19.25;68.91;101566.34;5030186;28;20066;-53
2021/09/25 03:26:08;;;;;;;16.23;6.45;;;;;;;19.24;68.80;101565.47;5043146;28;20041;-48
2021/09/25 03:28:33;;;;;;;16.48;6.35;;;;;;;19.25;68.91;101567.22;5044220;28;20681;-51
2021/09/25 03:30:59;;;;;;;15.98;6.72;;;;;;;19.23;69.00;101576.94;5033947;28;20071;-49
2021/09/25 03:33:24;;;;;;;14.38;5.97;;;;;;;19.20;69.36;101573.47;5044455;28;20132;-50
2021/09/25 03:35:49;;;;;;;14.73;6.35;;;;;;;19.25;69.14;101569.88;5041067;28;20900;-50
2021/09/25 03:38:21;;;;;;;16.42;6.40;;;;;;;19.22;69.37;101580.47;5045585;28;20482;-49
2021/09/25 03:40:47;;;;;;;15.85;6.80;;;;;;;19.20;69.41;101565.53;5039107;28;20040;-51
2021/09/25 03:43:13;;;;;;;18.13;6.70;;;;;;;19.26;69.04;101568.09;5021461;28;20040;-49
2021/09/25 03:45:38;;;;;;;18.27;6.70;;;;;;;19.25;69.37;101566.34;5027558;28;20040;-50
2021/09/25 03:48:05;;;;;;;17.83;7.15;;;;;;;19.25;69.43;101566.34;5040392;28;20593;-54
2021/09/25 03:50:34;;;;;;;15.40;6.72;;;;;;;19.26;69.36;101568.97;5042252;28;20037;-48
2021/09/25 03:53:00;;;;;;;18.35;6.80;;;;;;;19.23;69.50;101571.63;5042050;28;20048;-51
2021/09/25 03:55:25;;;;;;;16.92;6.15;;;;;;;19.27;69.50;101575.16;5042104;28;20037;-52
2021/09/25 03:57:52;;;;;;;20.00;7.28;;;;;;;19.26;69.38;101571.63;5046343;28;20090;-49
2021/09/25 04:00:18;;;;;;;18.60;7.40;;;;;;;19.23;69.67;101576.94;5046982;28;20041;-52
2021/09/25 04:02:44;;;;;;;18.52;6.80;;;;;;;19.25;69.51;101579.56;5044898;28;20051;-55
2021/09/25 04:05:10;;;;;;;13.65;6.97;;;;;;;19.28;69.62;101587.44;5037562;28;20052;-52
2021/09/25 04:07:35;;;;;;;20.67;7.88;;;;;;;19.29;69.71;101583.91;5041687;28;20437;-52
2021/09/25 04:10:00;;;;;;;22.63;7.78;;;;;;;19.27;69.69;101580.44;5043253;28;20036;-53
2021/09/25 04:12:26;;;;;;;20.55;7.95;;;;;;;19.24;69.86;101581.31;5024705;28;20040;-52
2021/09/25 04:14:51;;;;;;;19.80;7.30;;;;;;;19.24;69.95;101578.69;5035086;28;20032;-52
2021/09/25 04:17:16;;;;;;;17.20;7.53;;;;;;;19.21;70.35;101576.06;5046580;28;20047;-51
2021/09/25 04:19:42;;;;;;;18.80;7.65;;;;;;;19.21;70.25;101577.84;5043805;28;20074;-48
2021/09/25 04:22:07;;;;;;;17.75;8.27;;;;;;;19.23;70.21;101579.56;5037989;28;20051;-52
2021/09/25 04:24:32;;;;;;;14.13;7.57;;;;;;;19.25;70.18;101576.91;5044447;28;20045;-50
2021/09/25 04:26:58;;;;;;;20.35;8.85;;;;;;;19.23;70.12;101573.41;5038069;28;20044;-50
2021/09/25 04:29:23;;;;;;;20.50;8.98;;;;;;;19.26;70.02;101571.63;5039716;28;20044;-49
2021/09/25 04:31:48;;;;;;;24.65;8.85;;;;;;;19.23;70.48;101579.56;5044417;28;20048;-51
2021/09/25 04:34:15;;;;;;;23.38;9.77;;;;;;;19.18;70.59;101580.53;5024711;28;20039;-49
2021/09/25 04:36:41;;;;;;;24.70;9.98;;;;;;;19.23;70.42;101581.34;5047815;28;20048;-51
2021/09/25 04:39:07;;;;;;;17.95;8.70;;;;;;;19.25;70.32;101583.09;5040622;28;20166;-48
2021/09/25 04:41:33;;;;;;;20.75;9.82;;;;;;;19.22;70.36;101580.47;5048408;28;20043;-48
2021/09/25 04:43:58;;;;;;;22.35;10.05;;;;;;;19.23;70.47;101576.06;5044380;28;20502;-48
2021/09/25 04:46:24;;;;;;;26.02;10.38;;;;;;;19.24;70.52;101570.75;5047787;28;20079;-53
2021/09/25 04:48:49;;;;;;;27.30;10.45;;;;;;;19.26;70.36;101576.91;5040775;28;20347;-52
2021/09/25 04:51:18;;;;;;;25.92;11.27;;;;;;;19.26;70.37;101574.28;5023118;28;20124;-52
2021/09/25 04:53:43;;;;;;;26.52;11.50;;;;;;;19.29;70.41;101573.34;5044833;28;20852;-48
2021/09/25 04:56:09;;;;;;;23.95;10.27;;;;;;;19.28;70.40;101569.81;5050432;28;20036;-49
2021/09/25 04:58:34;;;;;;;28.35;10.55;;;;;;;19.31;70.31;101575.09;5044960;28;20044;-53
2021/09/25 05:01:01;;;;;;;27.08;11.77;;;;;;;19.31;70.49;101579.50;5023513;28;20047;-52
2021/09/25 05:03:26;;;;;;;24.67;10.93;;;;;;;19.32;70.31;101568.03;5046181;28;20082;-48
2021/09/25 05:05:52;;;;;;;24.80;11.30;;;;;;;19.29;70.57;101570.69;5044411;28;20040;-53
2021/09/25 05:08:17;;;;;;;34.38;11.68;;;;;;;19.20;70.93;101571.69;5044721;28;20045;-52
2021/09/25 05:10:42;;;;;;;29.13;11.48;;;;;;;19.27;71.00;101569.84;5044871;28;20595;-51
2021/09/25 05:13:08;;;;;;;29.60;11.40;;;;;;;19.22;71.15;101564.59;5026156;28;20051;-49
2021/09/25 05:15:33;;;;;;;27.05;11.13;;;;;;;19.31;70.81;101566.28;5047219;28;20131;-50
2021/09/25 05:17:58;;;;;;;29.05;11.80;;;;;;;19.25;71.07;101575.16;5045535;28;20127;-51
2021/09/25 05:20:24;;;;;;;32.20;11.60;;;;;;;19.27;71.09;101567.22;5047844;28;20048;-50
2021/09/25 05:22:49;;;;;;;27.92;11.35;;;;;;;19.24;71.04;101573.41;5041009;28;20056;-53
2021/09/25 05:25:15;;;;;;;28.88;11.98;;;;;;;19.28;70.96;101575.09;5048611;28;20055;-50
2021/09/25 05:27:42;;;;;;;27.77;11.35;;;;;;;19.31;71.27;101577.72;5043537;28;20131;-48
2021/09/25 05:30:09;;;;;;;27.10;11.18;;;;;;;19.33;70.81;101580.38;5042409;28;20052;-48
2021/09/25 05:32:34;;;;;;;43.63;12.20;;;;;;;19.32;70.88;101576.84;5046097;28;20127;-48
2021/09/25 05:35:00;;;;;;;30.75;11.73;;;;;;;19.31;71.00;101577.72;5040931;28;20071;-51
2021/09/25 05:37:25;;;;;;;21.98;10.45;;;;;;;19.32;71.08;101586.53;5028003;28;20802;-52
2021/09/25 05:39:54;;;;;;;29.42;12.30;;;;;;;19.29;71.32;101578.63;5048409;28;20070;-49
2021/09/25 05:42:22;;;;;;;27.83;12.35;;;;;;;19.34;71.04;101580.31;5048291;28;20453;-52
2021/09/25 05:44:48;;;;;;;32.40;12.98;;;;;;;19.29;71.31;101574.22;5042049;28;20605;-51
2021/09/25 05:47:13;;;;;;;31.33;12.38;;;;;;;19.30;71.43;101583.03;5044149;28;20048;-49
2021/09/25 05:49:39;;;;;;;35.83;12.65;;;;;;;19.29;71.53;101574.22;5041900;28;20033;-48
2021/09/25 05:52:06;;;;;;;30.42;11.82;;;;;;;19.30;71.34;101583.03;5026303;28;20052;-48
2021/09/25 05:54:32;;;;;;;36.65;12.15;;;;;;;19.31;71.49;101587.44;5047548;28;20241;-48
2021/09/25 05:56:57;;;;;;;44.95;13.23;;;;;;;19.28;71.69;101585.69;5038408;28;20039;-49
2021/09/25 05:59:23;;;;;;;36.67;12.93;;;;;;;19.32;71.65;101584.78;5045845;28;20041;-54
2021/09/25 06:01:49;;;;;;;29.80;11.80;;;;;;;19.37;71.60;101585.59;5046212;28;20127;-51
2021/09/25 06:04:15;;;;;;;36.15;12.60;;;;;;;19.38;71.68;101587.34;5040692;28;20036;-51
2021/09/25 06:06:40;;;;;;;33.60;11.88;;;;;;;19.41;71.72;101576.72;5045642;28;20098;-51
2021/09/25 06:09:06;;;;;;;36.42;12.20;;;;;;;19.41;71.67;101581.13;5041021;28;20535;-52
2021/09/25 06:11:31;;;;;;;36.28;12.68;;;;;;;19.46;71.71;101581.13;5044860;28;20037;-52
2021/09/25 06:13:56;;;;;;;43.05;12.80;;;;;;;19.49;71.59;101596.94;5043239;28;20633;-52
2021/09/25 06:16:22;;;;;;;35.25;12.80;;;;;;;19.58;71.51;101589.75;5048976;28;20040;-48
2021/09/25 06:18:47;;;;;;;36.63;12.10;;;;;;;19.62;71.52;101595.91;5039321;28;20044;-57
2021/09/25 06:21:13;;;;;;;40.35;12.57;;;;;;;19.65;71.20;101590.56;5045112;28;20048;-52
2021/09/25 06:23:38;;;;;;;38.78;12.85;;;;;;;19.68;71.17;101587.91;5040574;28;20051;-52
2021/09/25 06:26:04;;;;;;;34.28;12.38;;;;;;;19.68;71.42;101578.19;5047549;28;20040;-48
2021/09/25 06:28:29;;;;;;;36.70;12.90;;;;;;;19.73;71.16;101586.06;5046947;28;20032;-50
2021/09/25 06:30:55;;;;;;;36.97;13.18;;;;;;;19.76;71.11;101586.03;5038697;28;20101;-53
2021/09/25 06:33:20;;;;;;;36.13;12.90;;;;;;;19.81;71.01;101576.25;5041671;28;20036;-50
2021/09/25 06:35:47;;;;;;;36.05;12.10;;;;;;;19.84;70.87;101586.78;5046720;28;20491;-48
2021/09/25 06:38:13;;;;;;;36.58;12.90;;;;;;;19.88;70.81;101587.66;5048045;28;20037;-54
2021/09/25 06:40:38;;;;;;;38.83;12.82;;;;;;;19.87;70.82;101583.25;5040662;28;20156;-50
2021/09/25 06:43:04;;;;;;;36.35;13.30;;;;;;;19.90;70.61;101589.34;5040666;28;20422;-52
2021/09/25 06:45:32;;;;;;;33.65;12.13;;;;;;;19.91;70.76;101596.41;5043569;28;20276;-51
2021/09/25 06:47:58;;;;;;;35.75;13.25;;;;;;;19.91;70.82;101601.69;5046703;28;20155;-53
2021/09/25 06:50:24;;;;;;;41.75;13.38;;;;;;;19.92;70.75;101599.94;5045183;28;20560;-54
2021/09/25 06:52:50;;;;;;;37.47;13.70;;;;;;;20.01;70.58;101602.44;5039434;28;20043;-55
2021/09/25 06:55:15;;;;;;;39.60;13.80;;;;;;;20.14;70.07;101604.91;5047657;28;20063;-53
2021/09/25 06:57:40;;;;;;;42.67;14.40;;;;;;;20.27;69.98;101601.16;5041087;28;20596;-51
2021/09/25 07:00:06;;;;;;;53.20;19.90;;;;;;;20.43;68.93;101606.28;5042852;28;20040;-50
2021/09/25 07:02:37;;;;;;;39.10;13.77;;;;;;;20.47;68.72;101602.69;5044578;28;20131;-50
2021/09/25 07:05:02;;;;;;;37.05;13.93;;;;;;;20.40;68.64;101596.59;5038865;28;20799;-52
2021/09/25 07:07:28;;;;;;;44.15;13.93;;;;;;;20.47;68.73;101600.91;5046032;28;20047;-52
2021/09/25 07:09:53;;;;;;;41.35;14.80;;;;;;;20.54;68.52;101605.22;5041778;28;20310;-54
2021/09/25 07:12:19;;;;;;;40.55;16.23;;;;;;;20.58;68.61;101606.91;5046259;28;20063;-52
2021/09/25 07:14:46;;;;;;;42.88;15.82;;;;;;;20.73;68.03;101611.09;5043639;28;20040;-52
2021/09/25 07:17:11;;;;;;;54.72;19.52;;;;;;;20.82;67.89;101600.31;5022402;28;20121;-54
2021/09/25 07:19:37;;;;;;;48.42;18.40;;;;;;;20.85;68.01;101604.69;5036113;28;20628;-51
2021/09/25 07:22:02;;;;;;;48.47;19.02;;;;;;;20.92;67.77;101601.88;5037893;28;20631;-49
2021/09/25 07:24:28;;;;;;;52.20;16.88;;;;;;;20.88;67.48;101604.63;5045790;28;20073;-49
2021/09/25 07:26:53;;;;;;;48.13;17.70;;;;;;;20.98;67.50;101615.03;5035666;28;20056;-52
2021/09/25 07:29:18;;;;;;;47.53;17.77;;;;;;;21.12;67.41;101616.56;5043673;28;20158;-50
2021/09/25 07:31:45;;;;;;;44.13;16.90;;;;;;;21.08;67.42;101622.84;5048134;28;20087;-51
2021/09/25 07:34:11;;;;;;;44.97;17.70;;;;;;;21.26;66.83;101623.41;5046164;28;20050;-52
2021/09/25 07:36:36;;;;;;;52.25;20.58;;;;;;;21.39;66.25;101629.38;5047045;28;20481;-51
2021/09/25 07:39:02;;;;;;;56.10;22.25;;;;;;;21.34;66.26;101631.22;5004914;28;20666;-53
2021/09/25 07:41:27;;;;;;;50.72;22.17;;;;;;;21.43;66.31;101639.00;5027090;28;20202;-53
2021/09/25 07:43:52;;;;;;;57.45;23.80;;;;;;;21.50;66.06;101637.09;5044142;28;20408;-52
2021/09/25 07:46:18;;;;;;;53.35;23.17;;;;;;;21.66;65.96;101641.19;5042920;28;20470;-50
2021/09/25 07:48:44;;;;;;;43.97;17.92;;;;;;;21.74;65.55;101633.97;5045961;28;20162;-51
2021/09/25 07:51:10;;;;;;;44.47;19.00;;;;;;;22.05;64.36;101626.25;5036043;28;22754;-51
2021/09/25 07:53:35;;;;;;;45.80;18.98;;;;;;;22.01;64.87;101641.38;5043322;28;20049;-51
2021/09/25 07:56:01;;;;;;;42.00;19.25;;;;;;;22.05;64.40;101640.41;5019836;28;20044;-50
2021/09/25 07:58:26;;;;;;;46.67;19.00;;;;;;;21.96;64.35;101648.56;5044919;28;20036;-54
2021/09/25 08:00:51;;;;;;;41.55;17.10;;;;;;;21.90;64.47;101653.97;5036417;28;20135;-50
2021/09/25 08:03:18;;;;;;;41.45;16.02;;;;;;;21.86;64.82;101660.25;5040658;28;20170;-54
2021/09/25 08:05:43;;;;;;;44.40;17.17;;;;;;;21.73;65.87;101662.28;5041619;28;20917;-50
2021/09/25 08:08:09;;;;;;;40.88;16.17;;;;;;;21.76;65.09;101671.97;5044248;28;20102;-52
2021/09/25 08:10:34;;;;;;;39.90;16.85;;;;;;;21.70;65.50;101669.44;5043857;28;20099;-50
2021/09/25 08:13:00;;;;;;;37.35;16.20;;;;;;;21.66;65.73;101668.59;5044133;28;20055;-49
2021/09/25 08:15:25;;;;;;;41.38;18.13;;;;;;;21.67;66.26;101672.13;5030325;28;20217;-54
2021/09/25 08:17:50;;;;;;;42.35;17.33;;;;;;;21.54;66.55;101678.59;5045124;28;20584;-51
2021/09/25 08:20:17;;;;;;;48.17;20.25;;;;;;;21.53;65.68;101679.50;5045355;28;20047;-51
2021/09/25 08:22:45;;;;;;;58.45;24.27;;;;;;;21.50;66.34;101679.56;5046050;28;20286;-51
2021/09/25 08:25:11;;;;;;;45.65;18.75;;;;;;;21.58;65.95;101686.47;5044373;28;20408;-51
2021/09/25 08:27:37;;;;;;;48.38;20.52;;;;;;;21.67;66.34;101686.28;5045004;28;20028;-52
2021/09/25 08:30:04;;;;;;;48.70;19.88;;;;;;;21.61;67.15;101685.53;5024937;28;20036;-53
2021/09/25 08:32:30;;;;;;;41.40;16.25;;;;;;;21.83;66.05;101685.06;5045485;28;20064;-50
2021/09/25 08:34:55;;;;;;;42.38;16.73;;;;;;;22.01;65.58;101688.31;5039361;28;20135;-50
2021/09/25 08:37:20;;;;;;;39.03;16.33;;;;;;;22.13;64.48;101688.94;5048704;28;20466;-52
2021/09/25 08:39:46;;;;;;;35.30;15.95;;;;;;;22.18;64.50;101686.16;5045347;28;20115;-52
2021/09/25 08:42:16;;;;;;;37.38;15.90;;;;;;;22.18;65.28;101694.13;5042096;28;20040;-48
2021/09/25 08:44:42;;;;;;;38.75;16.20;;;;;;;22.19;64.13;101693.22;5025450;28;20107;-48
2021/09/25 08:47:08;;;;;;;39.10;15.77;;;;;;;22.14;64.73;101689.81;5037818;28;20044;-51
2021/09/25 08:49:33;;;;;;;42.40;16.52;;;;;;;22.07;65.52;101701.47;5045219;28;20067;-53
2021/09/25 08:51:59;;;;;;;42.13;17.05;;;;;;;22.18;64.84;101710.06;5044340;28;20493;-49
2021/09/25 08:54:24;;;;;;;37.55;16.67;;;;;;;22.20;64.29;101703.81;5042074;28;20086;-52
2021/09/25 08:56:50;;;;;;;43.03;17.33;;;;;;;22.32;63.91;101710.66;5038398;28;20029;-51
2021/09/25 08:59:15;;;;;;;40.00;15.88;;;;;;;22.39;64.19;101698.97;5046712;28;20547;-52
2021/09/25 09:01:44;;;;;;;39.78;17.00;;;;;;;22.19;65.45;101707.38;5042169;28;20608;-51
2021/09/25 09:04:10;;;;;;;41.38;16.80;;;;;;;22.32;64.88;101717.75;5046875;28;20043;-51
2021/09/25 09:06:38;;;;;;;41.78;17.83;;;;;;;22.17;65.73;101710.97;5040976;28;20055;-48
2021/09/25 09:09:08;;;;;;;42.22;17.48;;;;;;;22.15;64.09;101699.50;5019515;28;20032;-51
2021/09/25 09:11:40;;;;;;;41.95;17.02;;;;;;;21.94;65.18;101707.88;5041669;28;20128;-52
2021/09/25 09:14:05;;;;;;;37.75;16.92;;;;;;;22.03;65.12;101710.38;5044337;28;20083;-50
2021/09/25 09:16:31;;;;;;;46.38;17.35;;;;;;;22.21;64.71;101717.97;5044690;28;20139;-51
2021/09/25 09:18:58;;;;;;;38.92;16.85;;;;;;;22.49;64.44;101712.94;5040444;28;20040;-51
2021/09/25 09:21:28;;;;;;;38.25;16.58;;;;;;;22.80;63.17;101721.97;5035312;28;20056;-49
2021/09/25 09:23:56;;;;;;;37.92;15.90;;;;;;;23.08;61.45;101730.16;5045170;28;20045;-53
2021/09/25 09:26:28;;;;;;;38.80;17.40;;;;;;;22.96;61.65;101730.47;5022221;28;20810;-50
2021/09/25 09:28:56;;;;;;;37.03;17.10;;;;;;;23.38;61.96;101725.84;5016469;28;20422;-50
2021/09/25 09:31:22;;;;;;;39.20;18.25;;;;;;;23.49;61.19;101730.91;5045852;28;20595;-50
2021/09/25 09:33:53;;;;;;;36.67;17.35;;;;;;;23.33;60.89;101725.09;5004428;28;20049;-50
2021/09/25 09:36:23;;;;;;;34.75;16.55;;;;;;;23.33;60.81;101725.97;5004591;28;20113;-50
2021/09/25 09:38:53;;;;;;;37.22;17.50;;;;;;;23.32;60.98;101726.00;4994250;28;20037;-56
2021/09/25 09:41:22;;;;;;;36.95;17.63;;;;;;;23.21;60.78;101717.44;5002663;28;20049;-51
2021/09/25 09:43:49;;;;;;;29.35;16.70;;;;;;;23.17;61.46;101721.09;4996059;28;20042;-49
2021/09/25 09:46:14;;;;;;;31.95;16.30;;;;;;;23.20;61.30;101719.22;4997482;28;20116;-53
2021/09/25 09:48:40;;;;;;;34.38;16.75;;;;;;;23.14;62.38;101715.81;4998434;28;20052;-51
2021/09/25 09:51:06;;;;;;;37.60;17.17;;;;;;;23.24;61.37;101720.88;4992947;28;20760;-50
2021/09/25 09:53:42;;;;;;;33.45;16.42;;;;;;;23.29;61.11;101726.09;4996873;28;20041;-52
2021/09/25 09:56:22;;;;;;;33.58;16.98;;;;;;;23.28;61.14;101727.00;4993670;28;20045;-54
2021/09/25 09:58:58;;;;;;;35.05;18.40;;;;;;;23.31;60.55;101719.81;4998207;28;20530;-48
2021/09/25 10:01:23;;;;;;;36.80;17.08;;;;;;;23.29;61.76;101726.09;4999428;28;20131;-53
2021/09/25 10:03:49;;;;;;;34.85;18.45;;;;;;;22.89;63.18;101727.06;4998207;28;20429;-49
2021/09/25 10:06:15;;;;;;;35.85;19.90;;;;;;;22.94;62.42;101727.81;4977785;28;20033;-49
2021/09/25 10:08:40;;;;;;;40.42;20.75;;;;;;;22.64;63.59;101728.50;5000804;28;20129;-55
2021/09/25 10:11:06;;;;;;;39.90;20.60;;;;;;;22.76;62.58;101728.25;4987711;28;20438;-53
2021/09/25 10:13:32;;;;;;;39.92;20.15;;;;;;;22.76;62.67;101722.06;5000851;28;20053;-54
2021/09/25 10:15:58;;;;;;;35.63;19.60;;;;;;;22.71;63.07;101727.47;4991246;28;20041;-50
2021/09/25 10:18:23;;;;;;;38.53;21.00;;;;;;;22.48;64.72;101716.50;4996468;28;20107;-50
2021/09/25 10:20:49;;;;;;;37.63;19.73;;;;;;;22.62;63.41;101723.25;4993725;28;21291;-53
2021/09/25 10:23:15;;;;;;;46.20;22.42;;;;;;;22.50;64.04;101722.66;4997237;28;20041;-52
2021/09/25 10:25:41;;;;;;;41.15;21.27;;;;;;;22.42;64.25;101722.81;4997141;28;20034;-54
2021/09/25 10:28:24;;;;;;;39.22;20.85;;;;;;;22.38;65.18;101720.28;4990866;28;20462;-52
2021/09/25 10:30:50;;;;;;;41.80;20.60;;;;;;;22.45;64.40;101716.53;4993681;28;20088;-51
2021/09/25 10:33:16;;;;;;;35.33;19.50;;;;;;;22.46;63.43;101713.88;4994895;28;20936;-50
2021/09/25 10:35:41;;;;;;;38.65;19.40;;;;;;;22.54;63.56;101717.22;4999785;28;20055;-51
2021/09/25 10:38:07;;;;;;;33.75;18.70;;;;;;;22.59;63.78;101715.34;5000694;28;20060;-53
2021/09/25 10:40:40;;;;;;;35.45;18.48;;;;;;;22.57;65.11;101716.28;4998462;28;20097;-51
2021/09/25 10:43:28;;;;;;;33.58;18.10;;;;;;;22.63;65.34;101711.69;4991978;28;20049;-51
2021/09/25 10:45:56;;;;;;;31.60;17.48;;;;;;;22.73;65.92;101711.53;5003757;28;20087;-53
2021/09/25 10:48:24;;;;;;;30.02;16.83;;;;;;;22.76;64.09;101714.09;4999407;28;20049;-53
2021/09/25 10:50:52;;;;;;;35.25;17.35;;;;;;;23.01;62.60;101709.94;4998865;28;20041;-50
2021/09/25 10:53:34;;;;;;;28.92;16.73;;;;;;;23.10;62.46;101716.81;5003707;28;20307;-51
2021/09/25 10:56:03;;;;;;;27.15;16.45;;;;;;;23.17;61.74;101715.75;4998388;28;20120;-49
2021/09/25 10:58:32;;;;;;;28.70;16.40;;;;;;;23.24;62.14;101715.53;4998306;28;20056;-48
2021/09/25 11:01:08;;;;;;;32.15;17.70;;;;;;;23.26;60.85;101715.50;4991846;28;20153;-48
2021/09/25 11:03:39;;;;;;;29.13;16.15;;;;;;;23.27;61.13;101714.59;4994234;28;20497;-51
2021/09/25 11:06:08;;;;;;;28.30;16.55;;;;;;;23.24;62.66;101717.31;5001703;28;20138;-48
2021/09/25 11:08:35;;;;;;;29.92;16.60;;;;;;;23.22;62.66;101706.75;5001398;28;20426;-51